createdAt,value
2023-05-07T00:00:20.148Z,100319.13
2023-05-07T00:02:47.717Z,100323.06
2023-05-07T00:05:14.839Z,100314.59
2023-05-07T00:07:41.784Z,100317.72
2023-05-07T00:10:09.269Z,100323.13
2023-05-07T00:12:35.976Z,100330.47
2023-05-07T00:15:04.887Z,100317.16
2023-05-07T00:17:33.958Z,100321.75
2023-05-07T00:20:00.776Z,100313.41
2023-05-07T00:22:27.401Z,100311.00
2023-05-07T00:24:54.012Z,100309.22
2023-05-07T00:27:20.657Z,100313.31
2023-05-07T00:29:47.064Z,100312.22
2023-05-07T00:32:13.740Z,100315.06
2023-05-07T00:34:41.138Z,100314.94
2023-05-07T00:37:10.589Z,100320.97
2023-05-07T00:39:37.161Z,100312.00
2023-05-07T00:42:04.377Z,100308.63
2023-05-07T00:44:31.042Z,100309.13
2023-05-07T00:46:58.464Z,100316.75
2023-05-07T00:49:39.034Z,100321.97
2023-05-07T00:52:07.817Z,100317.94
2023-05-07T00:54:35.095Z,100315.81
2023-05-07T00:57:03.326Z,100314.81
2023-05-07T00:59:30.097Z,100311.75
2023-05-07T01:01:56.578Z,100308.81
2023-05-07T01:04:23.369Z,100304.63
2023-05-07T01:06:51.750Z,100308.41
2023-05-07T01:09:21.011Z,100310.41
2023-05-07T01:11:48.740Z,100313.66
2023-05-07T01:14:15.754Z,100314.09
2023-05-07T01:16:42.654Z,100308.97
2023-05-07T01:19:12.098Z,100316.31
2023-05-07T01:21:38.868Z,100316.16
2023-05-07T01:24:05.998Z,100315.94
2023-05-07T01:26:32.843Z,100317.50
2023-05-07T01:28:59.521Z,100320.69
2023-05-07T01:31:26.430Z,100324.34
2023-05-07T01:33:53.824Z,100324.34
2023-05-07T01:36:22.148Z,100310.50
2023-05-07T01:38:48.974Z,100322.50
2023-05-07T01:41:16.532Z,100328.69
2023-05-07T01:43:43.514Z,100328.56
2023-05-07T01:46:11.072Z,100324.75
2023-05-07T01:48:38.472Z,100328.63
2023-05-07T01:51:06.039Z,100328.50
2023-05-07T01:53:39.898Z,100326.47
2023-05-07T01:56:06.894Z,100324.03
2023-05-07T01:58:34.131Z,100330.69
2023-05-07T02:01:01.013Z,100326.13
2023-05-07T02:03:27.935Z,100329.25
2023-05-07T02:05:54.626Z,100328.50
2023-05-07T02:08:21.267Z,100320.97
2023-05-07T02:10:47.758Z,100323.69
2023-05-07T02:13:14.404Z,100329.03
2023-05-07T02:15:40.935Z,100333.25
2023-05-07T02:18:10.002Z,100323.22
2023-05-07T02:20:36.714Z,100328.78
2023-05-07T02:23:03.274Z,100334.19
2023-05-07T02:25:31.199Z,100337.88
2023-05-07T02:27:58.024Z,100345.41
2023-05-07T02:30:26.196Z,100343.41
2023-05-07T02:32:53.617Z,100350.25
2023-05-07T02:35:20.551Z,100349.19
2023-05-07T02:37:47.189Z,100340.56
2023-05-07T02:40:13.965Z,100337.97
2023-05-07T02:42:40.434Z,100337.09
2023-05-07T02:45:07.747Z,100344.50
2023-05-07T02:47:34.144Z,100344.50
2023-05-07T02:50:00.627Z,100343.34
2023-05-07T02:52:27.368Z,100344.50
2023-05-07T02:54:53.828Z,100344.97
2023-05-07T02:57:20.247Z,100342.44
2023-05-07T02:59:46.821Z,100339.84
2023-05-07T03:02:13.419Z,100340.13
2023-05-07T03:04:40.853Z,100352.69
2023-05-07T03:07:07.525Z,100341.16
2023-05-07T03:09:34.059Z,100346.09
2023-05-07T03:12:00.721Z,100342.16
2023-05-07T03:14:27.200Z,100335.50
2023-05-07T03:16:53.905Z,100336.13
2023-05-07T03:19:20.415Z,100343.16
2023-05-07T03:21:47.024Z,100343.03
2023-05-07T03:24:13.541Z,100345.63
2023-05-07T03:26:40.079Z,100347.19
2023-05-07T03:29:06.769Z,100346.91
2023-05-07T03:31:33.254Z,100343.78
2023-05-07T03:33:59.986Z,100350.16
2023-05-07T03:36:29.479Z,100351.78
2023-05-07T03:38:55.983Z,100348.22
2023-05-07T03:41:22.425Z,100346.47
2023-05-07T03:43:49.012Z,100352.34
2023-05-07T03:46:15.915Z,100352.66
2023-05-07T03:48:42.333Z,100350.50
2023-05-07T03:51:08.710Z,100351.81
2023-05-07T03:53:35.314Z,100363.59
2023-05-07T03:56:01.718Z,100356.56
2023-05-07T03:58:28.133Z,100358.34
2023-05-07T04:00:54.544Z,100363.22
2023-05-07T04:03:20.998Z,100368.84
2023-05-07T04:05:48.082Z,100361.41
2023-05-07T04:08:15.049Z,100360.44
2023-05-07T04:10:41.560Z,100361.63
2023-05-07T04:13:08.057Z,100364.81
2023-05-07T04:15:34.469Z,100361.69
2023-05-07T04:18:01.218Z,100370.28
2023-05-07T04:20:27.858Z,100369.41
2023-05-07T04:22:54.384Z,100373.00
2023-05-07T04:25:20.953Z,100371.72
2023-05-07T04:27:47.413Z,100376.41
2023-05-07T04:30:14.843Z,100379.88
2023-05-07T04:32:41.497Z,100385.75
2023-05-07T04:35:08.387Z,100388.88
2023-05-07T04:37:34.897Z,100395.56
2023-05-07T04:40:01.438Z,100395.16
2023-05-07T04:42:28.335Z,100389.88
2023-05-07T04:44:55.079Z,100394.41
2023-05-07T04:47:21.621Z,100407.22
2023-05-07T04:49:48.079Z,100409.16
2023-05-07T04:52:14.463Z,100401.69
2023-05-07T04:54:40.904Z,100409.38
2023-05-07T04:57:07.381Z,100406.41
2023-05-07T04:59:33.954Z,100405.59
2023-05-07T05:02:00.572Z,100408.78
2023-05-07T05:04:27.069Z,100412.16
2023-05-07T05:06:53.839Z,100422.44
2023-05-07T05:09:20.347Z,100418.31
2023-05-07T05:11:46.915Z,100420.75
2023-05-07T05:14:13.342Z,100417.19
2023-05-07T05:16:39.891Z,100421.94
2023-05-07T05:19:06.387Z,100409.56
2023-05-07T05:21:33.233Z,100414.91
2023-05-07T05:23:59.666Z,100403.38
2023-05-07T05:26:26.754Z,100417.06
2023-05-07T05:28:53.294Z,100423.47
2023-05-07T05:31:19.841Z,100423.25
2023-05-07T05:33:46.393Z,100428.69
2023-05-07T05:36:14.145Z,100431.66
2023-05-07T05:38:41.358Z,100437.81
2023-05-07T05:41:07.864Z,100439.88
2023-05-07T05:43:34.356Z,100441.66
2023-05-07T05:46:01.753Z,100439.66
2023-05-07T05:48:30.216Z,100449.88
2023-05-07T05:50:56.732Z,100454.41
2023-05-07T05:53:23.216Z,100451.03
2023-05-07T05:55:49.666Z,100458.44
2023-05-07T05:58:16.329Z,100459.56
2023-05-07T06:00:43.049Z,100467.72
2023-05-07T06:03:09.617Z,100463.59
2023-05-07T06:05:36.172Z,100457.81
2023-05-07T06:08:02.798Z,100468.00
2023-05-07T06:10:29.288Z,100475.47
2023-05-07T06:12:55.842Z,100474.22
2023-05-07T06:15:22.324Z,100484.03
2023-05-07T06:17:50.141Z,100482.03
2023-05-07T06:20:16.745Z,100484.22
2023-05-07T06:22:43.114Z,100500.78
2023-05-07T06:25:09.788Z,100487.97
2023-05-07T06:27:36.340Z,100491.41
2023-05-07T06:30:02.801Z,100482.03
2023-05-07T06:32:29.353Z,100489.56
2023-05-07T06:34:56.612Z,100482.41
2023-05-07T06:37:23.172Z,100488.16
2023-05-07T06:39:49.620Z,100484.81
2023-05-07T06:42:16.202Z,100488.75
2023-05-07T06:44:42.738Z,100496.44
2023-05-07T06:47:09.108Z,100493.28
2023-05-07T06:49:36.211Z,100505.66
2023-05-07T06:52:02.735Z,100508.94
2023-05-07T06:54:30.297Z,100514.63
2023-05-07T06:56:56.768Z,100509.25
2023-05-07T06:59:23.362Z,100503.50
2023-05-07T07:01:49.812Z,100508.06
2023-05-07T07:04:16.350Z,100509.50
2023-05-07T07:06:43.151Z,100509.69
2023-05-07T07:09:09.716Z,100511.22
2023-05-07T07:11:36.301Z,100505.28
2023-05-07T07:14:02.757Z,100515.13
2023-05-07T07:16:29.224Z,100508.38
2023-05-07T07:18:55.806Z,100506.75
2023-05-07T07:21:22.242Z,100508.22
2023-05-07T07:23:48.789Z,100514.34
2023-05-07T07:26:15.357Z,100514.91
2023-05-07T07:28:45.785Z,100516.44
2023-05-07T07:31:13.010Z,100511.19
2023-05-07T07:33:39.840Z,100516.94
2023-05-07T07:36:07.410Z,100523.19
2023-05-07T07:38:34.340Z,100519.63
2023-05-07T07:41:01.689Z,100524.06
2023-05-07T07:43:28.651Z,100524.69
2023-05-07T07:45:55.070Z,100526.25
2023-05-07T07:48:21.648Z,100529.28
2023-05-07T07:50:52.175Z,100528.19
2023-05-07T07:53:19.151Z,100524.81
2023-05-07T07:55:45.813Z,100534.00
2023-05-07T07:58:12.216Z,100540.63
2023-05-07T08:00:38.686Z,100541.91
2023-05-07T08:03:06.290Z,100536.53
2023-05-07T08:05:32.864Z,100541.72
2023-05-07T08:07:59.541Z,100537.38
2023-05-07T08:10:26.238Z,100538.94
2023-05-07T08:12:52.906Z,100545.41
2023-05-07T08:15:19.467Z,100546.53
2023-05-07T08:17:45.985Z,100549.59
2023-05-07T08:20:12.613Z,100550.31
2023-05-07T08:22:39.636Z,100556.84
2023-05-07T08:25:06.392Z,100555.53
2023-05-07T08:27:32.810Z,100560.34
2023-05-07T08:29:59.817Z,100559.50
2023-05-07T08:32:26.480Z,100564.06
2023-05-07T08:34:53.290Z,100563.88
2023-05-07T08:37:20.017Z,100552.94
2023-05-07T08:39:46.800Z,100556.06
2023-05-07T08:42:14.048Z,100555.47
2023-05-07T08:44:40.943Z,100557.84
2023-05-07T08:47:08.580Z,100549.50
2023-05-07T08:49:35.818Z,100553.75
2023-05-07T08:52:02.887Z,100560.63
2023-05-07T08:54:30.577Z,100563.28
2023-05-07T08:56:57.163Z,100571.44
2023-05-07T08:59:23.611Z,100572.00
2023-05-07T09:01:50.163Z,100574.19
2023-05-07T09:04:16.823Z,100568.91
2023-05-07T09:06:43.540Z,100581.38
2023-05-07T09:09:10.534Z,100565.00
2023-05-07T09:11:36.900Z,100584.19
2023-05-07T09:14:03.725Z,100583.84
2023-05-07T09:16:31.863Z,100581.34
2023-05-07T09:19:00.608Z,100580.31
2023-05-07T09:21:28.245Z,100584.28
2023-05-07T09:23:56.301Z,100592.19
2023-05-07T09:26:23.560Z,100588.16
2023-05-07T09:28:50.000Z,100595.00
2023-05-07T09:31:18.200Z,100591.16
2023-05-07T09:33:46.104Z,100592.31
2023-05-07T09:36:13.012Z,100592.53
2023-05-07T09:38:39.663Z,100594.84
2023-05-07T09:41:11.566Z,100589.41
2023-05-07T09:43:39.675Z,100594.56
2023-05-07T09:46:16.368Z,100589.56
2023-05-07T09:48:44.858Z,100588.63
2023-05-07T09:51:23.120Z,100590.94
2023-05-07T09:53:49.785Z,100594.34
2023-05-07T09:56:17.222Z,100601.84
2023-05-07T09:58:44.532Z,100595.59
2023-05-07T10:01:12.875Z,100597.69
2023-05-07T10:03:42.935Z,100603.63
2023-05-07T10:06:11.450Z,100599.69
2023-05-07T10:08:38.641Z,100598.56
2023-05-07T10:11:06.084Z,100592.78
2023-05-07T10:13:36.888Z,100593.94
2023-05-07T10:16:06.913Z,100604.78
2023-05-07T10:18:34.113Z,100596.66
2023-05-07T10:21:09.193Z,100605.03
2023-05-07T10:23:35.758Z,100602.66
2023-05-07T10:26:05.299Z,100599.06
2023-05-07T10:28:35.844Z,100610.63
2023-05-07T10:31:11.310Z,100604.41
2023-05-07T10:33:38.377Z,100599.38
2023-05-07T10:36:06.793Z,100591.50
2023-05-07T10:38:33.561Z,100596.44
2023-05-07T10:41:00.030Z,100596.97
2023-05-07T10:43:26.615Z,100591.84
2023-05-07T10:46:16.442Z,100589.72
2023-05-07T10:49:01.644Z,100585.13
2023-05-07T10:51:29.217Z,100585.09
2023-05-07T10:54:11.103Z,100580.81
2023-05-07T10:56:43.964Z,100582.66
2023-05-07T10:59:28.098Z,100577.53
2023-05-07T11:01:56.038Z,100580.22
2023-05-07T11:04:27.279Z,100592.03
2023-05-07T11:07:09.591Z,100588.97
2023-05-07T11:09:54.570Z,100582.59
2023-05-07T11:12:53.464Z,100580.56
2023-05-07T11:15:40.934Z,100575.19
2023-05-07T11:18:07.554Z,100576.81
2023-05-07T11:20:53.813Z,100576.94
2023-05-07T11:23:39.204Z,100568.13
2023-05-07T11:26:07.206Z,100574.53
2023-05-07T11:28:38.804Z,100576.19
2023-05-07T11:31:05.862Z,100577.03
2023-05-07T11:33:32.996Z,100563.78
2023-05-07T11:36:00.837Z,100573.38
2023-05-07T11:38:27.475Z,100575.69
2023-05-07T11:40:58.437Z,100568.47
2023-05-07T11:43:24.816Z,100580.72
2023-05-07T11:45:51.535Z,100579.19
2023-05-07T11:48:18.191Z,100576.28
2023-05-07T11:50:55.481Z,100582.59
2023-05-07T11:53:25.742Z,100573.84
2023-05-07T11:55:56.771Z,100582.91
2023-05-07T11:58:24.908Z,100579.31
2023-05-07T12:00:52.112Z,100580.75
2023-05-07T12:03:21.684Z,100586.53
2023-05-07T12:05:48.826Z,100578.63
2023-05-07T12:08:22.495Z,100582.31
2023-05-07T12:10:52.392Z,100581.97
2023-05-07T12:13:20.100Z,100586.94
2023-05-07T12:15:46.808Z,100585.50
2023-05-07T12:18:14.340Z,100576.53
2023-05-07T12:20:40.957Z,100588.50
2023-05-07T12:23:07.816Z,100580.59
2023-05-07T12:25:38.719Z,100581.69
2023-05-07T12:28:08.499Z,100579.72
2023-05-07T12:30:39.238Z,100584.94
2023-05-07T12:33:05.809Z,100592.84
2023-05-07T12:35:37.057Z,100593.88
2023-05-07T12:38:05.434Z,100589.75
2023-05-07T12:40:38.757Z,100604.47
2023-05-07T12:43:05.509Z,100594.78
2023-05-07T12:45:32.198Z,100600.22
2023-05-07T12:48:02.424Z,100594.69
2023-05-07T12:50:32.511Z,100593.16
2023-05-07T12:52:59.021Z,100586.38
2023-05-07T12:55:25.415Z,100590.88
2023-05-07T12:57:52.500Z,100576.53
2023-05-07T13:00:33.731Z,100576.53
2023-05-07T13:03:00.274Z,100578.78
2023-05-07T13:05:26.842Z,100578.38
2023-05-07T13:07:56.402Z,100583.53
2023-05-07T13:10:24.228Z,100584.91
2023-05-07T13:12:51.358Z,100576.56
2023-05-07T13:15:18.467Z,100572.00
2023-05-07T13:17:45.569Z,100577.84
2023-05-07T13:20:13.714Z,100573.25
2023-05-07T13:22:40.889Z,100574.97
2023-05-07T13:25:08.084Z,100576.03
2023-05-07T13:27:37.704Z,100569.28
2023-05-07T13:30:05.625Z,100555.94
2023-05-07T13:32:32.645Z,100566.53
2023-05-07T13:34:59.301Z,100563.00
2023-05-07T13:37:25.745Z,100570.41
2023-05-07T13:39:52.332Z,100570.56
2023-05-07T13:42:18.818Z,100568.09
2023-05-07T13:44:45.341Z,100565.81
2023-05-07T13:47:12.032Z,100564.25
2023-05-07T13:49:38.681Z,100572.53
2023-05-07T13:52:05.337Z,100563.97
2023-05-07T13:54:31.764Z,100567.97
2023-05-07T13:56:58.294Z,100570.03
2023-05-07T13:59:24.638Z,100563.66
2023-05-07T14:01:51.112Z,100565.16
2023-05-07T14:04:17.560Z,100568.22
2023-05-07T14:06:43.973Z,100568.88
2023-05-07T14:09:13.142Z,100565.25
2023-05-07T14:11:40.783Z,100564.41
2023-05-07T14:14:07.221Z,100569.31
2023-05-07T14:16:33.881Z,100567.00
2023-05-07T14:19:00.498Z,100562.34
2023-05-07T14:21:26.995Z,100567.22
2023-05-07T14:23:53.552Z,100555.78
2023-05-07T14:26:21.818Z,100560.13
2023-05-07T14:28:48.291Z,100552.81
2023-05-07T14:31:14.905Z,100562.72
2023-05-07T14:33:42.311Z,100561.94
2023-05-07T14:36:09.080Z,100557.63
2023-05-07T14:38:35.665Z,100541.56
2023-05-07T14:41:02.227Z,100554.75
2023-05-07T14:43:28.616Z,100545.22
2023-05-07T14:45:55.047Z,100554.34
2023-05-07T14:48:21.721Z,100554.94
2023-05-07T14:50:49.349Z,100553.94
2023-05-07T14:53:16.811Z,100548.72
2023-05-07T14:55:43.487Z,100554.09
2023-05-07T14:58:13.250Z,100548.06
2023-05-07T15:00:39.887Z,100571.13
2023-05-07T15:03:11.203Z,100569.66
2023-05-07T15:05:38.725Z,100571.66
2023-05-07T15:08:06.326Z,100568.66
2023-05-07T15:10:41.604Z,100558.25
2023-05-07T15:13:10.663Z,100567.16
2023-05-07T15:15:39.902Z,100574.16
2023-05-07T15:18:06.502Z,100568.59
2023-05-07T15:20:33.072Z,100573.88
2023-05-07T15:22:59.904Z,100581.97
2023-05-07T15:25:26.433Z,100571.44
2023-05-07T15:27:53.423Z,100572.16
2023-05-07T15:30:20.984Z,100569.31
2023-05-07T15:32:48.242Z,100584.41
2023-05-07T15:35:14.872Z,100576.31
2023-05-07T15:37:41.468Z,100575.09
2023-05-07T15:40:08.898Z,100586.75
2023-05-07T15:42:35.767Z,100584.97
2023-05-07T15:45:02.369Z,100592.56
2023-05-07T15:47:29.181Z,100592.09
2023-05-07T15:49:56.431Z,100593.88
2023-05-07T15:52:23.084Z,100602.44
2023-05-07T15:54:49.487Z,100598.25
2023-05-07T15:57:15.960Z,100598.81
2023-05-07T15:59:42.504Z,100593.13
2023-05-07T16:02:09.139Z,100604.50
2023-05-07T16:04:35.808Z,100598.00
2023-05-07T16:07:02.270Z,100592.69
2023-05-07T16:09:29.356Z,100586.56
2023-05-07T16:11:56.264Z,100588.91
2023-05-07T16:14:24.384Z,100601.63
2023-05-07T16:16:50.976Z,100599.50
2023-05-07T16:19:17.531Z,100596.56
2023-05-07T16:21:44.036Z,100596.34
2023-05-07T16:24:10.722Z,100591.97
2023-05-07T16:26:37.352Z,100594.53
2023-05-07T16:29:04.973Z,100592.69
2023-05-07T16:31:31.635Z,100592.78
2023-05-07T16:33:58.196Z,100607.81
2023-05-07T16:36:28.153Z,100603.97
2023-05-07T16:38:55.658Z,100600.81
2023-05-07T16:41:22.533Z,100601.88
2023-05-07T16:43:49.053Z,100606.63
2023-05-07T16:46:15.609Z,100603.59
2023-05-07T16:48:42.221Z,100610.94
2023-05-07T16:51:09.436Z,100615.81
2023-05-07T16:53:36.211Z,100610.09
2023-05-07T16:56:06.312Z,100601.13
2023-05-07T16:58:33.432Z,100609.50
2023-05-07T17:01:00.800Z,100602.75
2023-05-07T17:03:28.923Z,100604.91
2023-05-07T17:05:56.129Z,100612.44
2023-05-07T17:08:22.645Z,100621.03
2023-05-07T17:10:49.195Z,100609.78
2023-05-07T17:13:15.856Z,100615.06
2023-05-07T17:15:43.733Z,100622.09
2023-05-07T17:18:10.500Z,100620.94
2023-05-07T17:20:37.055Z,100628.44
2023-05-07T17:23:03.627Z,100624.41
2023-05-07T17:25:32.202Z,100636.22
2023-05-07T17:27:58.755Z,100626.56
2023-05-07T17:30:25.373Z,100631.34
2023-05-07T17:32:52.189Z,100627.19
2023-05-07T17:35:19.009Z,100641.16
2023-05-07T17:37:52.182Z,100638.09
2023-05-07T17:40:20.753Z,100638.31
2023-05-07T17:42:47.191Z,100637.88
2023-05-07T17:45:13.771Z,100644.00
2023-05-07T17:47:41.390Z,100640.75
2023-05-07T17:50:11.429Z,100635.56
2023-05-07T17:52:38.798Z,100643.13
2023-05-07T17:55:05.857Z,100638.28
2023-05-07T17:57:32.291Z,100636.97
2023-05-07T17:59:58.981Z,100642.69
2023-05-07T18:02:25.944Z,100646.63
2023-05-07T18:04:53.140Z,100644.34
2023-05-07T18:07:19.880Z,100650.28
2023-05-07T18:09:46.340Z,100648.34
2023-05-07T18:12:13.057Z,100644.94
2023-05-07T18:14:39.531Z,100649.50
2023-05-07T18:17:06.599Z,100661.78
2023-05-07T18:19:32.964Z,100659.19
2023-05-07T18:21:59.419Z,100661.34
2023-05-07T18:24:27.068Z,100661.03
2023-05-07T18:26:53.672Z,100682.16
2023-05-07T18:29:20.479Z,100680.38
2023-05-07T18:31:47.098Z,100682.50
2023-05-07T18:34:14.503Z,100676.59
2023-05-07T18:36:41.565Z,100684.13
2023-05-07T18:39:08.653Z,100682.34
2023-05-07T18:41:38.407Z,100701.00
2023-05-07T18:44:06.068Z,100696.88
2023-05-07T18:46:33.251Z,100692.66
2023-05-07T18:48:59.892Z,100702.28
2023-05-07T18:51:27.216Z,100698.22
2023-05-07T18:53:55.154Z,100708.03
2023-05-07T18:56:22.125Z,100704.75
2023-05-07T18:58:48.542Z,100712.59
2023-05-07T19:01:15.286Z,100715.03
2023-05-07T19:03:41.865Z,100714.72
2023-05-07T19:06:08.484Z,100718.16
2023-05-07T19:08:35.054Z,100717.50
2023-05-07T19:11:02.631Z,100711.56
2023-05-07T19:13:29.138Z,100711.56
2023-05-07T19:15:56.073Z,100701.56
2023-05-07T19:18:22.832Z,100711.38
2023-05-07T19:20:52.113Z,100711.06
2023-05-07T19:23:21.127Z,100720.66
2023-05-07T19:25:47.994Z,100724.41
2023-05-07T19:28:14.564Z,100725.88
2023-05-07T19:30:41.074Z,100727.31
2023-05-07T19:33:07.691Z,100725.66
2023-05-07T19:35:35.357Z,100732.47
2023-05-07T19:38:02.513Z,100734.47
2023-05-07T19:40:29.340Z,100730.06
2023-05-07T19:42:55.981Z,100727.94
2023-05-07T19:45:22.669Z,100730.78
2023-05-07T19:47:49.505Z,100738.03
2023-05-07T19:50:16.495Z,100738.22
2023-05-07T19:52:43.406Z,100743.69
2023-05-07T19:55:10.200Z,100751.28
2023-05-07T19:57:37.225Z,100749.41
2023-05-07T20:00:05.312Z,100756.09
2023-05-07T20:02:32.513Z,100755.19
2023-05-07T20:04:58.994Z,100756.00
2023-05-07T20:07:25.510Z,100764.69
2023-05-07T20:09:52.062Z,100764.06
2023-05-07T20:12:18.611Z,100764.06
2023-05-07T20:14:45.039Z,100769.75
2023-05-07T20:17:11.584Z,100764.81
2023-05-07T20:19:38.459Z,100773.84
2023-05-07T20:22:05.007Z,100780.25
2023-05-07T20:24:31.508Z,100780.72
2023-05-07T20:26:59.205Z,100779.97
2023-05-07T20:29:25.824Z,100777.00
2023-05-07T20:31:52.377Z,100770.91
2023-05-07T20:34:19.170Z,100787.97
2023-05-07T20:36:46.540Z,100781.47
2023-05-07T20:39:15.921Z,100781.66
2023-05-07T20:41:44.132Z,100788.22
2023-05-07T20:44:11.372Z,100794.28
2023-05-07T20:46:38.426Z,100790.25
2023-05-07T20:49:05.128Z,100797.31
2023-05-07T20:51:31.742Z,100790.44
2023-05-07T20:53:58.185Z,100797.75
2023-05-07T20:56:24.732Z,100792.88
2023-05-07T20:58:51.213Z,100797.75
2023-05-07T21:01:17.675Z,100794.28
2023-05-07T21:03:44.155Z,100803.03
2023-05-07T21:06:10.700Z,100808.06
2023-05-07T21:08:37.202Z,100803.97
2023-05-07T21:11:03.921Z,100800.47
2023-05-07T21:13:31.248Z,100804.16
2023-05-07T21:15:57.687Z,100804.03
2023-05-07T21:18:26.584Z,100803.09
2023-05-07T21:20:53.239Z,100806.63
2023-05-07T21:23:19.724Z,100803.28
2023-05-07T21:25:47.677Z,100800.47
2023-05-07T21:28:14.204Z,100802.84
2023-05-07T21:30:40.888Z,100797.94
2023-05-07T21:33:08.661Z,100809.94
2023-05-07T21:35:36.316Z,100807.59
2023-05-07T21:38:03.225Z,100807.53
2023-05-07T21:40:29.878Z,100810.41
2023-05-07T21:42:56.256Z,100808.16
2023-05-07T21:45:22.636Z,100807.78
2023-05-07T21:47:49.319Z,100814.47
2023-05-07T21:50:16.189Z,100817.34
2023-05-07T21:52:43.496Z,100817.81
2023-05-07T21:55:10.290Z,100828.53
2023-05-07T21:57:37.628Z,100821.22
2023-05-07T22:00:04.537Z,100820.50
2023-05-07T22:02:31.730Z,100822.97
2023-05-07T22:04:58.426Z,100819.81
2023-05-07T22:07:25.477Z,100819.06
2023-05-07T22:09:51.966Z,100819.59
2023-05-07T22:12:18.405Z,100819.28
2023-05-07T22:14:45.023Z,100820.50
2023-05-07T22:17:11.548Z,100816.81
2023-05-07T22:19:38.012Z,100818.75
2023-05-07T22:22:04.580Z,100824.84
2023-05-07T22:24:31.286Z,100822.78
2023-05-07T22:26:57.684Z,100824.22
2023-05-07T22:29:24.594Z,100815.72
2023-05-07T22:31:51.090Z,100813.31
2023-05-07T22:34:17.738Z,100812.50
2023-05-07T22:36:44.395Z,100813.84
2023-05-07T22:39:11.595Z,100815.72
2023-05-07T22:41:38.038Z,100814.97
2023-05-07T22:44:04.525Z,100817.81
2023-05-07T22:46:31.118Z,100812.28
2023-05-07T22:48:57.528Z,100810.41
2023-05-07T22:51:24.058Z,100811.66
2023-05-07T22:53:50.608Z,100808.38
2023-05-07T22:56:17.031Z,100815.69
2023-05-07T22:58:43.585Z,100808.00
2023-05-07T23:01:14.354Z,100806.97
2023-05-07T23:03:41.262Z,100805.72
2023-05-07T23:06:08.088Z,100815.59
2023-05-07T23:08:35.147Z,100809.44
2023-05-07T23:11:01.552Z,100822.78
2023-05-07T23:13:28.475Z,100817.66
2023-05-07T23:15:55.382Z,100812.31
2023-05-07T23:18:21.900Z,100812.13
2023-05-07T23:20:48.809Z,100806.06
2023-05-07T23:23:15.628Z,100809.03
2023-05-07T23:25:42.276Z,100812.53
2023-05-07T23:28:08.970Z,100803.19
2023-05-07T23:30:35.473Z,100811.19
2023-05-07T23:33:02.354Z,100816.31
2023-05-07T23:35:29.320Z,100814.75
2023-05-07T23:37:55.901Z,100810.66
2023-05-07T23:40:22.669Z,100813.22
2023-05-07T23:42:49.253Z,100807.16
2023-05-07T23:45:15.872Z,100808.31
2023-05-07T23:47:42.445Z,100814.25
2023-05-07T23:50:09.389Z,100810.66
2023-05-07T23:52:35.955Z,100802.44
2023-05-07T23:55:02.415Z,100801.53
2023-05-07T23:57:29.016Z,100796.31
2023-05-07T23:59:55.739Z,100807.09
